Aérodrome :
LOGIN :

S'inscrire | Disclaimer

   EN    FR    IT 

 










Légende :    VFR   VFR Marginal   IFR   IFR Intensif   IFR Très Intensif
Visi : 
Plafond : 
>= 8 km
>= 3000ft
5 à 8 km
1000 à 3000 ft
1500m à 5 km
500 à 1000 ft
800 à 1500m
200 à 500 ft
< 800m
< 200 ft
Symboles :   Orages  Brouillard  Fortes neiges  Fortes précipitations  Vent > 20 kt
SIGMETs :   Divers  Orages  Givrage  Turbulence  Onde Orograph.  Cendres Volcan.







- Altitude de l'aérodrome : 870 ft
- Code IATA : ETZ
- Voir les cartes d'approche


LFJL - Metz Nancy Lorraine

DERNIER METAR :
  • 250630Z AUTO 03008KT 9999 NCD 16/13 Q1023 NOSIG

METARs EXPIRÉS :
  • 250600Z AUTO 01006KT 9999 NCD 15/12 Q1023 NOSIG
  • 250530Z AUTO VRB02KT 9999 NCD 14/12 Q1023 NOSIG
  • 250500Z AUTO VRB03KT 9999 NCD 13/11 Q1023 NOSIG
  • 250430Z AUTO 03003KT CAVOK 13/11 Q1023 NOSIG
  • 250400Z AUTO 04002KT 9999 NCD 12/10 Q1023 NOSIG

TAF TAF LFJL
Valide du 25 à 06h jusqu'au 26 à 06h UTC


250500Z 2506/2606 04005KT CAVOK
BECMG 2510/2512 05012KT
Pas de NOTAMs connus pour ce terrain.



MET'MAP, la Météo Aéronautique d'un coup d'oeil ! - Copyright ORBIFLY Décembre 2007 - Disclaimer

ORBIFLY MET'MAP TEAM :

Programmation & Développement : Alexandra Zaïnal
Conception & Développement : Baudouin d'Aumeries
Co-Programmation & Développement : Marc-Olivier Méhu
Soutien technique & logistique : Manuel Goepfert

Contact : metmap@orbifly.com




SOURCES & CREDITS :

   NOAA